Time;durP1;ratioP1;P1;durP2;ratioP2;P2;SDS_P1;SDS_P2;PMS_P1;PMS_P2;Temp;Humidity;BMP_temperature;BMP_pressure;BME280_temperature;BME280_humidity;BME280_pressure;Samples;Min_cycle;Max_cycle;Signal;HPM_P1;HPM_P2
2022/05/11 00:00:17;;;;;;;12.20;5.00;;;;;;;12.15;38.80;100194.84;107601;1274;107667;-81
2022/05/11 00:03:07;;;;;;;10.20;5.30;;;;;;;12.07;38.99;100188.69;106960;1275;97840;-80
2022/05/11 00:05:40;;;;;;;9.30;4.60;;;;;;;12.01;39.09;100186.14;106291;1274;97929;-81
2022/05/11 00:08:12;;;;;;;7.70;5.00;;;;;;;11.96;39.38;100185.13;106088;1274;112388;-81
2022/05/11 00:10:44;;;;;;;9.20;4.90;;;;;;;11.91;39.60;100183.06;107615;1274;107870;-81
2022/05/11 00:13:16;;;;;;;8.20;4.60;;;;;;;11.87;39.57;100181.14;107621;1274;108726;-81
2022/05/11 00:15:48;;;;;;;10.00;4.80;;;;;;;11.84;39.75;100177.06;107584;1276;96146;-81
2022/05/11 00:18:20;;;;;;;11.90;5.20;;;;;;;11.79;39.78;100176.69;107623;1274;96397;-81
2022/05/11 00:20:52;;;;;;;9.00;5.00;;;;;;;11.76;40.24;100175.92;106397;1274;112635;-80
2022/05/11 00:23:24;;;;;;;12.50;5.30;;;;;;;11.74;40.26;100176.38;106153;1276;109286;-80
2022/05/11 00:25:57;;;;;;;8.10;5.00;;;;;;;11.70;40.36;100169.38;106943;1274;107668;-81
2022/05/11 00:28:29;;;;;;;15.20;5.70;;;;;;;11.67;40.39;100163.92;106239;1275;97955;-81
2022/05/11 00:31:01;;;;;;;11.50;5.10;;;;;;;11.62;40.85;100166.88;106111;1276;97723;-82
2022/05/11 00:33:33;;;;;;;9.60;5.30;;;;;;;11.58;41.10;100155.90;107632;1274;111712;-82
2022/05/11 00:36:09;;;;;;;10.10;4.80;;;;;;;11.54;41.10;100151.89;107622;1274;108018;-82
2022/05/11 00:38:44;;;;;;;7.40;4.70;;;;;;;11.49;41.26;100137.77;106513;1274;107526;-81
2022/05/11 00:41:17;;;;;;;10.80;4.90;;;;;;;11.46;41.41;100134.56;106116;1275;97839;-80
2022/05/11 00:43:57;;;;;;;7.40;4.80;;;;;;;11.44;41.70;100134.48;107208;1274;96739;-80
2022/05/11 00:46:36;;;;;;;7.50;4.30;;;;;;;11.42;41.97;100132.79;106174;1274;111444;-80
2022/05/11 00:52:06;;;;;;;8.30;4.90;;;;;;;11.42;41.88;100134.89;106032;1276;108519;-78
2022/05/11 00:54:43;;;;;;;11.00;4.80;;;;;;;11.42;42.01;100138.89;106127;1274;97856;-82
2022/05/11 00:57:19;;;;;;;8.10;4.40;;;;;;;11.42;42.10;100134.02;106073;1275;98129;-80
2022/05/11 00:59:53;;;;;;;10.40;4.60;;;;;;;11.42;42.19;100135.08;106199;1275;112041;-82
2022/05/11 01:02:27;;;;;;;10.30;4.90;;;;;;;11.41;42.21;100129.90;107637;1274;107880;-81
2022/05/11 01:05:05;;;;;;;9.10;4.60;;;;;;;11.41;42.39;100132.86;107573;1274;107655;-80
2022/05/11 01:07:39;;;;;;;7.50;4.80;;;;;;;11.41;42.22;100130.77;106970;1274;97872;-80
2022/05/11 01:10:12;;;;;;;12.10;5.10;;;;;;;11.41;42.06;100133.35;106242;1274;97840;-80
2022/05/11 01:12:48;;;;;;;10.70;4.50;;;;;;;11.42;42.18;100132.45;107668;1274;112912;-81
2022/05/11 01:15:21;;;;;;;10.10;4.60;;;;;;;11.43;42.27;100134.85;107652;1274;108895;-81
2022/05/11 01:17:55;;;;;;;9.60;4.90;;;;;;;11.44;42.25;100139.70;107657;1274;107737;-81
2022/05/11 01:20:30;;;;;;;6.60;4.20;;;;;;;11.44;42.17;100139.35;106686;1276;97861;-81
2022/05/11 01:23:10;;;;;;;7.70;5.00;;;;;;;11.45;42.36;100140.34;106106;1275;97823;-80
2022/05/11 01:25:43;;;;;;;10.40;5.00;;;;;;;11.47;42.40;100140.08;106202;1274;111084;-81
2022/05/11 01:28:17;;;;;;;10.20;5.40;;;;;;;11.47;42.38;100136.96;106156;1274;109124;-80
2022/05/11 01:30:52;;;;;;;10.70;5.10;;;;;;;11.46;42.49;100137.68;106133;1274;105789;-81
2022/05/11 01:33:25;;;;;;;15.00;5.00;;;;;;;11.45;42.61;100133.54;106099;1274;97862;-81
2022/05/11 01:36:05;;;;;;;9.30;4.70;;;;;;;11.43;42.71;100133.27;107637;1274;96006;-82
2022/05/11 01:38:41;;;;;;;13.70;5.20;;;;;;;11.40;42.85;100127.31;107637;1274;111216;-82
2022/05/11 01:41:17;;;;;;;12.60;4.90;;;;;;;11.38;42.94;100125.31;107665;1274;108246;-82
2022/05/11 01:43:50;;;;;;;10.00;4.90;;;;;;;11.35;43.00;100117.25;106741;1276;109064;-80
2022/05/11 01:46:22;;;;;;;6.90;4.60;;;;;;;11.32;43.26;100112.33;106185;1266;97913;-81
2022/05/11 01:48:54;;;;;;;9.00;4.80;;;;;;;11.28;43.12;100107.90;106228;1273;97848;-79
2022/05/11 01:51:26;;;;;;;9.10;4.80;;;;;;;11.25;43.43;100101.93;106157;1273;111381;-81
2022/05/11 01:53:58;;;;;;;8.00;4.80;;;;;;;11.23;43.49;100100.96;106227;1273;108832;-80
2022/05/11 01:56:31;;;;;;;11.50;5.00;;;;;;;11.20;43.55;100095.85;106173;1273;109091;-79
2022/05/11 01:59:03;;;;;;;10.10;4.90;;;;;;;11.18;43.99;100089.67;106265;1272;97857;-80
2022/05/11 02:01:40;;;;;;;12.90;5.10;;;;;;;11.14;44.01;100087.05;106451;1273;97765;-80
2022/05/11 02:09:50;;;;;;;12.00;4.80;;;;;;;11.04;44.36;100073.67;107291;1273;108949;-79
2022/05/11 02:12:22;;;;;;;9.80;4.90;;;;;;;11.02;44.31;100069.59;106695;1272;98707;-82
2022/05/11 02:14:54;;;;;;;8.70;5.00;;;;;;;10.99;44.61;100063.59;106823;1271;97922;-81
2022/05/11 02:17:26;;;;;;;8.20;4.70;;;;;;;10.97;44.73;100057.06;107772;1271;111357;-81
2022/05/11 02:19:59;;;;;;;10.20;5.00;;;;;;;10.96;44.91;100051.89;106696;1271;108858;-81
2022/05/11 02:22:31;;;;;;;8.70;4.60;;;;;;;10.95;44.92;100051.21;107661;1271;108906;-82
2022/05/11 02:25:03;;;;;;;7.50;4.80;;;;;;;10.93;45.07;100047.11;107440;1271;97869;-81
2022/05/11 02:27:36;;;;;;;8.40;5.10;;;;;;;10.94;44.87;100043.23;107348;1273;96212;-82
2022/05/11 02:30:13;;;;;;;10.20;5.20;;;;;;;10.94;45.11;100038.02;106397;1271;112393;-80
2022/05/11 02:32:45;;;;;;;13.70;5.30;;;;;;;10.97;45.31;100039.30;106968;1273;106554;-81
2022/05/11 02:35:17;;;;;;;11.80;5.40;;;;;;;11.00;45.44;100039.73;106344;1273;108908;-81
2022/05/11 02:37:53;;;;;;;7.90;4.70;;;;;;;11.00;45.25;100037.99;107558;1272;96415;-80
2022/05/11 02:40:27;;;;;;;7.60;4.60;;;;;;;11.03;45.07;100039.95;106304;1273;97823;-80
2022/05/11 02:43:01;;;;;;;13.30;5.10;;;;;;;11.05;45.01;100037.61;107779;1273;111473;-80
2022/05/11 02:45:35;;;;;;;8.60;5.10;;;;;;;11.05;45.14;100032.73;106995;1271;108202;-80
2022/05/11 02:48:09;;;;;;;9.80;5.50;;;;;;;11.05;45.12;100034.13;106248;1273;108402;-80
2022/05/11 02:50:43;;;;;;;10.90;5.00;;;;;;;11.05;45.41;100036.22;107725;1273;96366;-82
2022/05/11 02:53:15;;;;;;;11.90;5.80;;;;;;;11.03;45.47;100040.30;107749;1273;95962;-82
2022/05/11 02:55:49;;;;;;;10.70;5.50;;;;;;;11.03;45.44;100038.73;107752;1273;111328;-82
2022/05/11 02:58:23;;;;;;;9.50;5.10;;;;;;;11.02;45.33;100038.07;107694;1274;108826;-81
2022/05/11 03:00:57;;;;;;;10.90;5.30;;;;;;;11.03;45.56;100041.50;107706;1273;108978;-81
2022/05/11 03:03:33;;;;;;;10.00;5.00;;;;;;;11.03;45.65;100041.17;107756;1272;96219;-81
2022/05/11 03:06:07;;;;;;;12.20;5.10;;;;;;;11.02;45.68;100036.84;106737;1274;97638;-81
2022/05/11 03:08:39;;;;;;;10.30;5.10;;;;;;;11.01;45.83;100034.30;107678;1274;112440;-81
2022/05/11 03:11:11;;;;;;;7.50;4.40;;;;;;;11.01;45.91;100035.88;107708;1274;109059;-81
2022/05/11 03:13:43;;;;;;;9.80;4.90;;;;;;;11.00;45.71;100029.11;107733;1272;107878;-82
2022/05/11 03:16:15;;;;;;;12.90;5.80;;;;;;;11.00;45.98;100029.65;107261;1273;97857;-81
2022/05/11 03:18:47;;;;;;;9.70;4.60;;;;;;;10.99;45.93;100024.27;106546;1274;97813;-80
2022/05/11 03:21:20;;;;;;;9.50;5.30;;;;;;;11.00;46.07;100027.73;107343;1273;111077;-81
2022/05/11 03:23:52;;;;;;;9.60;4.90;;;;;;;11.01;46.33;100016.38;106950;1273;107745;-81
2022/05/11 03:26:24;;;;;;;12.10;5.30;;;;;;;11.01;46.03;100014.27;107669;1274;107467;-81
2022/05/11 03:28:56;;;;;;;10.60;5.10;;;;;;;11.02;46.41;100018.08;107692;1274;96037;-81
2022/05/11 03:31:28;;;;;;;12.40;5.20;;;;;;;11.03;46.42;100008.80;106283;1274;97841;-81
2022/05/11 03:36:50;;;;;;;10.40;5.70;;;;;;;11.05;46.41;100003.88;106869;1274;108947;-81
2022/05/11 03:39:23;;;;;;;12.60;5.30;;;;;;;11.07;46.32;100008.46;107746;1274;108902;-81
2022/05/11 03:41:54;;;;;;;12.30;5.40;;;;;;;11.08;46.34;100006.17;107110;1272;97905;-80
2022/05/11 03:44:28;;;;;;;10.20;4.90;;;;;;;11.09;46.40;100001.97;106205;1274;97950;-80
2022/05/11 03:47:00;;;;;;;12.10;5.80;;;;;;;11.10;46.50;100001.72;106168;1274;112238;-80
2022/05/11 03:49:33;;;;;;;12.40;5.30;;;;;;;11.12;46.50;99997.65;107515;1274;108866;-81
2022/05/11 03:52:06;;;;;;;13.40;5.20;;;;;;;11.14;46.48;99998.98;106123;1274;107217;-80
2022/05/11 03:54:41;;;;;;;12.00;5.60;;;;;;;11.16;46.72;99999.61;107648;1274;95797;-80
2022/05/11 03:57:13;;;;;;;13.00;5.10;;;;;;;11.17;46.81;99994.89;107611;1274;96194;-80
2022/05/11 03:59:45;;;;;;;10.10;5.40;;;;;;;11.19;46.57;99995.15;107632;1274;111437;-81
2022/05/11 04:02:17;;;;;;;13.20;5.50;;;;;;;11.22;46.68;99992.59;106823;1274;107653;-80
2022/05/11 04:04:50;;;;;;;15.40;5.70;;;;;;;11.26;46.79;99994.85;106277;1273;108909;-81
2022/05/11 04:07:22;;;;;;;13.10;5.40;;;;;;;11.30;46.77;99997.84;106075;1273;97944;-81
2022/05/11 04:09:54;;;;;;;11.50;5.00;;;;;;;11.35;46.50;99995.91;106102;1274;97810;-80
2022/05/11 04:12:29;;;;;;;16.30;5.40;;;;;;;11.40;46.73;100000.05;106777;1274;112009;-80
2022/05/11 04:15:01;;;;;;;12.00;5.40;;;;;;;11.47;46.69;99995.42;107701;1274;107943;-80
2022/05/11 04:17:34;;;;;;;11.70;5.30;;;;;;;11.51;46.83;99998.92;107663;1273;107991;-80
2022/05/11 04:20:09;;;;;;;11.20;5.50;;;;;;;11.58;46.46;99997.06;107748;1274;96356;-80
2022/05/11 04:22:41;;;;;;;11.80;5.10;;;;;;;11.67;46.58;99998.28;107697;1273;96139;-80
2022/05/11 04:25:15;;;;;;;12.40;5.00;;;;;;;11.78;46.11;99990.17;107704;1272;112565;-81
2022/05/11 04:27:49;;;;;;;14.30;5.00;;;;;;;11.88;46.18;99986.67;107667;1274;108957;-80
2022/05/11 04:30:22;;;;;;;18.30;5.60;;;;;;;11.96;46.01;99990.47;107409;1274;107566;-79
2022/05/11 04:32:55;;;;;;;14.40;5.40;;;;;;;12.07;45.95;99988.98;106143;1274;97858;-79
2022/05/11 04:35:30;;;;;;;11.50;5.40;;;;;;;12.17;46.01;99986.63;106590;1273;97860;-80
2022/05/11 04:38:03;;;;;;;11.20;5.20;;;;;;;12.27;45.87;99990.02;107696;1273;112607;-81
2022/05/11 04:40:36;;;;;;;10.90;5.50;;;;;;;12.39;45.74;99987.08;107445;1273;109382;-80
2022/05/11 04:43:12;;;;;;;14.60;5.50;;;;;;;12.51;45.46;99978.52;107671;1274;109030;-80
2022/05/11 04:45:45;;;;;;;14.60;5.80;;;;;;;12.65;45.31;99975.10;107646;1273;96128;-80
2022/05/11 04:48:19;;;;;;;14.10;5.20;;;;;;;12.79;45.28;99974.85;107660;1273;96155;-80
2022/05/11 04:50:51;;;;;;;19.30;5.50;;;;;;;12.91;44.99;99976.17;107664;1273;111406;-80
2022/05/11 04:53:23;;;;;;;15.40;5.60;;;;;;;13.09;44.80;99971.00;107662;1273;107663;-80
2022/05/11 04:55:55;;;;;;;9.90;5.00;;;;;;;13.28;44.61;99968.56;107691;1273;109165;-79
2022/05/11 04:58:27;;;;;;;12.10;5.40;;;;;;;13.41;44.35;99966.56;107681;1273;96091;-80
2022/05/11 05:00:59;;;;;;;17.70;6.30;;;;;;;13.50;44.13;99971.17;107667;1273;95855;-83
2022/05/11 05:03:31;;;;;;;14.20;5.60;;;;;;;13.63;43.92;99971.38;107704;1273;112286;-80
2022/05/11 05:06:03;;;;;;;15.00;5.50;;;;;;;13.76;43.68;99975.09;107683;1273;109413;-80
2022/05/11 05:08:35;;;;;;;14.00;5.70;;;;;;;13.95;43.61;99969.95;107616;1273;109053;-80
2022/05/11 05:11:07;;;;;;;19.70;6.20;;;;;;;14.30;43.22;99967.29;106854;1273;97843;-80
2022/05/11 05:13:39;;;;;;;20.40;5.70;;;;;;;14.90;42.39;99968.67;107393;1273;96275;-81
2022/05/11 05:16:11;;;;;;;11.60;5.20;;;;;;;15.46;41.84;99967.16;107642;1273;111952;-81
2022/05/11 05:18:43;;;;;;;8.80;5.40;;;;;;;16.37;40.73;99956.55;106210;1273;108404;-80
2022/05/11 05:21:16;;;;;;;9.30;5.20;;;;;;;17.09;39.28;99954.60;106945;1272;109133;-81
2022/05/11 05:23:49;;;;;;;14.40;5.50;;;;;;;17.72;38.23;99956.64;107600;1273;96251;-80
2022/05/11 05:26:21;;;;;;;13.90;6.10;;;;;;;18.21;37.12;99958.08;106320;1273;98102;-79
2022/05/11 05:31:43;;;;;;;23.40;6.10;;;;;;;19.31;35.46;99954.86;106103;1273;108905;-79
2022/05/11 05:34:16;;;;;;;26.50;6.80;;;;;;;19.86;34.67;99954.17;106098;1273;109510;-79
2022/05/11 05:36:48;;;;;;;21.50;5.90;;;;;;;20.26;33.74;99948.27;106104;1273;97868;-68
2022/05/11 05:39:20;;;;;;;17.50;5.50;;;;;;;20.02;33.74;99949.26;107594;1273;95775;-80
2022/05/11 05:41:52;;;;;;;18.60;6.30;;;;;;;20.27;33.73;99947.38;106169;1273;113635;-79
2022/05/11 05:44:29;;;;;;;22.50;5.90;;;;;;;21.29;32.56;99942.21;106165;1273;107510;-79
2022/05/11 05:47:07;;;;;;;19.70;5.40;;;;;;;22.19;31.71;99938.68;106172;1273;109257;-81
2022/05/11 05:49:40;;;;;;;15.00;6.10;;;;;;;22.80;31.01;99936.38;107679;1273;96007;-78
2022/05/11 05:52:17;;;;;;;17.50;5.50;;;;;;;23.23;29.92;99940.92;106676;1274;213440;-78
2022/05/11 05:54:51;;;;;;;15.90;4.80;;;;;;;23.33;29.75;99934.69;107157;1274;111697;-80
2022/05/11 05:57:23;;;;;;;14.40;5.30;;;;;;;23.48;29.00;99936.66;106965;1274;108057;-81
2022/05/11 05:59:56;;;;;;;15.60;5.10;;;;;;;23.25;29.03;99936.67;106658;1273;109290;-81
2022/05/11 06:02:28;;;;;;;18.40;5.90;;;;;;;23.01;29.08;99934.22;107435;1273;96572;-80
2022/05/11 06:05:00;;;;;;;14.60;5.10;;;;;;;22.91;28.95;99939.52;106136;1273;97857;-80
2022/05/11 06:07:33;;;;;;;15.70;5.10;;;;;;;22.93;29.15;99933.63;106950;1273;111723;-80
2022/05/11 06:10:07;;;;;;;10.80;5.10;;;;;;;22.94;29.12;99937.08;106288;1273;107778;-81
2022/05/11 06:12:40;;;;;;;13.80;5.20;;;;;;;23.41;29.19;99943.86;106805;1273;109627;-81
2022/05/11 06:15:14;;;;;;;20.50;5.20;;;;;;;23.97;28.60;99941.75;107677;1273;95973;-81
2022/05/11 06:17:47;;;;;;;13.10;5.40;;;;;;;24.45;28.07;99936.28;106421;1274;97890;-80
2022/05/11 06:20:19;;;;;;;22.90;5.70;;;;;;;24.89;27.64;99933.77;106840;1274;112301;-80
2022/05/11 06:22:53;;;;;;;14.60;5.10;;;;;;;25.35;27.13;99931.64;107696;1272;108723;-81
2022/05/11 06:25:25;;;;;;;18.90;5.60;;;;;;;25.81;26.65;99935.21;107643;1274;107995;-81
2022/05/11 06:27:58;;;;;;;20.10;5.50;;;;;;;26.07;26.11;99934.73;107638;1273;95781;-82
2022/05/11 06:30:31;;;;;;;21.70;5.30;;;;;;;26.11;26.11;99930.19;107681;1272;96175;-79
2022/05/11 06:33:04;;;;;;;22.30;5.40;;;;;;;26.38;25.82;99932.02;107675;1272;112615;-80
2022/05/11 06:35:36;;;;;;;14.50;4.80;;;;;;;26.74;25.73;99930.48;107665;1272;108663;-80
2022/05/11 06:38:11;;;;;;;13.80;5.30;;;;;;;26.89;25.25;99930.45;107594;1273;107958;-79
2022/05/11 06:40:43;;;;;;;14.80;4.70;;;;;;;27.17;24.79;99922.30;107616;1272;95941;-79
2022/05/11 06:43:15;;;;;;;26.80;6.70;;;;;;;27.43;24.85;99926.80;107657;1273;95793;-79
2022/05/11 06:45:47;;;;;;;19.90;5.10;;;;;;;27.72;24.53;99925.11;107510;1273;110289;-78
2022/05/11 06:48:19;;;;;;;13.50;4.90;;;;;;;28.01;24.11;99924.51;106177;1273;109521;-79
2022/05/11 06:50:51;;;;;;;18.60;5.20;;;;;;;28.12;23.59;99922.44;107671;1274;109931;-78
2022/05/11 06:53:23;;;;;;;16.20;5.30;;;;;;;28.35;23.29;99918.41;107360;1274;96028;-78
2022/05/11 07:01:43;;;;;;;22.60;5.50;;;;;;;29.63;22.44;99912.13;107182;1277;108976;-78
2022/05/11 07:04:15;;;;;;;16.40;4.80;;;;;;;29.98;22.10;99907.26;107193;1277;108387;-78
2022/05/11 07:06:47;;;;;;;14.50;4.90;;;;;;;30.45;21.85;99905.48;107155;1277;96272;-78
2022/05/11 07:09:19;;;;;;;19.80;4.90;;;;;;;30.91;21.47;99895.52;105980;1277;97865;-80
2022/05/11 07:14:42;;;;;;;13.50;4.90;;;;;;;32.19;21.01;99901.55;107220;1277;109154;-81
2022/05/11 07:17:23;;;;;;;22.90;5.00;;;;;;;32.77;20.02;99887.27;106440;1278;108212;-80
2022/05/11 07:19:56;;;;;;;16.20;4.60;;;;;;;33.03;19.85;99885.95;106537;1277;98035;-80
2022/05/11 07:22:28;;;;;;;13.10;4.70;;;;;;;33.36;19.67;99882.60;106824;1277;96490;-80
2022/05/11 07:25:00;;;;;;;19.40;5.10;;;;;;;33.94;19.36;99879.77;107375;1277;112883;-80
2022/05/11 07:27:32;;;;;;;14.80;4.80;;;;;;;34.22;19.01;99874.23;106724;1277;109262;-79
2022/05/11 07:30:07;;;;;;;14.00;4.70;;;;;;;34.15;18.62;99878.47;105993;1276;108644;-79
2022/05/11 07:32:40;;;;;;;16.10;5.00;;;;;;;34.39;18.56;99872.80;106825;1277;97997;-79
2022/05/11 07:35:13;;;;;;;11.70;4.50;;;;;;;34.29;18.11;99868.40;106079;1274;97875;-79
2022/05/11 07:37:47;;;;;;;14.50;4.70;;;;;;;34.07;18.62;99868.39;106182;1273;112820;-80
2022/05/11 07:40:21;;;;;;;10.80;4.20;;;;;;;34.12;18.98;99866.05;106166;1273;108367;-80
2022/05/11 07:42:54;;;;;;;18.30;4.60;;;;;;;34.60;18.50;99858.65;106139;1273;108950;-78
2022/05/11 07:45:27;;;;;;;11.40;4.70;;;;;;;34.33;18.38;99860.42;107643;1272;96220;-79
2022/05/11 07:47:59;;;;;;;17.20;4.30;;;;;;;33.51;18.42;99865.30;107715;1272;95727;-80
2022/05/11 07:50:32;;;;;;;18.00;6.00;;;;;;;32.89;19.06;99852.63;107639;1273;112408;-80
2022/05/11 07:53:05;;;;;;;17.90;5.20;;;;;;;32.62;19.29;99856.74;106226;1274;107015;-81
2022/05/11 07:55:37;;;;;;;15.30;4.80;;;;;;;32.27;19.91;99852.45;106362;1273;109052;-80
2022/05/11 08:01:02;;;;;;;18.40;4.50;;;;;;;31.36;20.60;99854.41;107667;1273;95753;-80
2022/05/11 08:03:34;;;;;;;19.80;5.00;;;;;;;31.20;20.79;99853.72;107680;1272;112798;-80
2022/05/11 08:06:06;;;;;;;15.10;5.20;;;;;;;30.82;20.96;99849.45;107730;1272;109044;-81
2022/05/11 08:08:39;;;;;;;19.80;5.00;;;;;;;30.65;21.59;99841.66;107694;1273;109042;-80
2022/05/11 08:11:11;;;;;;;19.90;4.60;;;;;;;30.58;21.65;99839.98;107716;1272;96177;-79
2022/05/11 08:13:43;;;;;;;11.30;5.00;;;;;;;30.33;21.87;99841.64;107746;1272;96003;-80
2022/05/11 08:16:14;;;;;;;11.30;4.50;;;;;;;30.16;22.23;99840.77;107645;1274;112305;-80
2022/05/11 08:18:47;;;;;;;15.40;4.40;;;;;;;29.88;22.33;99849.56;107335;1273;107258;-80
2022/05/11 08:21:19;;;;;;;17.50;4.70;;;;;;;29.39;22.66;99846.67;106339;1273;108676;-80
2022/05/11 08:23:51;;;;;;;15.80;5.50;;;;;;;28.83;23.22;99841.52;107663;1272;96051;-81
2022/05/11 08:26:23;;;;;;;15.30;4.90;;;;;;;28.17;23.80;99845.34;106169;1273;97844;-81
2022/05/11 08:28:55;;;;;;;14.30;5.20;;;;;;;27.51;24.49;99852.10;106130;1273;112609;-81
2022/05/11 08:34:17;;;;;;;13.60;5.30;;;;;;;26.80;25.81;99849.33;105994;1274;108060;-81
2022/05/11 08:36:49;;;;;;;13.90;5.00;;;;;;;26.88;26.34;99851.15;106110;1274;97814;-79
2022/05/11 08:39:22;;;;;;;13.20;4.70;;;;;;;27.03;26.51;99853.11;106170;1273;97814;-80
2022/05/11 08:41:55;;;;;;;9.50;4.80;;;;;;;27.34;26.16;99849.44;107654;1274;112454;-78
2022/05/11 08:44:33;;;;;;;15.80;4.80;;;;;;;27.65;26.12;99850.73;106357;1273;107177;-77
2022/05/11 08:47:13;;;;;;;17.60;4.40;;;;;;;27.87;25.95;99853.67;106061;1273;108827;-81
2022/05/11 08:49:52;;;;;;;12.60;5.20;;;;;;;27.86;25.79;99854.11;107506;1273;96563;-83
2022/05/11 08:52:41;;;;;;;11.50;4.90;;;;;;;27.87;25.83;99855.04;107574;1272;95956;-84
2022/05/11 08:55:24;;;;;;;8.20;4.70;;;;;;;28.17;25.86;99848.16;107650;1272;112406;-79
2022/05/11 08:57:57;;;;;;;12.50;4.50;;;;;;;28.28;25.81;99853.13;107633;1272;108988;-80
2022/05/11 09:00:29;;;;;;;10.80;4.70;;;;;;;28.34;25.58;99847.87;107655;1272;109013;-79
2022/05/11 09:03:06;;;;;;;12.40;5.70;;;;;;;28.50;25.78;99844.96;107626;1273;96314;-79
2022/05/11 09:05:39;;;;;;;15.40;6.00;;;;;;;29.07;25.46;99847.16;107673;1272;95843;-79
2022/05/11 09:08:13;;;;;;;9.20;4.50;;;;;;;29.55;25.30;99844.97;107616;1273;112234;-79
2022/05/11 09:10:46;;;;;;;11.00;4.60;;;;;;;29.54;24.60;99833.06;107517;1273;107737;-81
2022/05/11 09:13:20;;;;;;;11.90;4.80;;;;;;;29.31;24.63;99835.00;107651;1272;109005;-79
2022/05/11 09:16:01;;;;;;;17.30;5.40;;;;;;;29.15;24.78;99833.91;107608;1273;96051;-80
2022/05/11 09:18:40;;;;;;;15.10;5.10;;;;;;;28.91;25.19;99835.41;106938;1273;96568;-79
2022/05/11 09:21:29;;;;;;;14.30;5.50;;;;;;;28.79;25.31;99831.38;107600;1272;111897;-80
2022/05/11 09:24:22;;;;;;;11.30;5.30;;;;;;;29.05;25.34;99836.70;106566;1273;109097;-82
2022/05/11 09:27:09;;;;;;;14.20;5.00;;;;;;;29.34;25.37;99834.80;107640;1272;107825;-80
2022/05/11 09:29:44;;;;;;;14.10;4.90;;;;;;;29.78;25.02;99840.27;106504;1273;97836;-79
2022/05/11 09:32:37;;;;;;;9.60;4.60;;;;;;;30.11;24.66;99840.38;106315;1274;97793;-80
2022/05/11 09:35:36;;;;;;;13.20;4.20;;;;;;;30.47;24.31;99838.71;107616;1272;112647;-80
2022/05/11 09:38:36;;;;;;;9.10;4.00;;;;;;;31.12;23.99;99836.46;107110;1277;107974;-79
2022/05/11 09:41:21;;;;;;;15.00;4.30;;;;;;;31.96;23.33;99840.45;107154;1278;109013;-79
2022/05/11 09:43:58;;;;;;;12.60;4.30;;;;;;;32.78;22.60;99836.84;107008;1279;96443;-80
2022/05/11 09:46:33;;;;;;;12.80;4.10;;;;;;;33.09;21.98;99838.09;107128;1278;96250;-80
2022/05/11 09:49:11;;;;;;;10.10;3.60;;;;;;;33.45;21.60;99833.25;107192;1278;111544;-80
2022/05/11 09:51:55;;;;;;;4.30;3.10;;;;;;;33.58;21.02;99829.84;107187;1278;107808;-79
2022/05/11 09:54:33;;;;;;;8.40;4.00;;;;;;;33.72;21.00;99825.63;106118;1278;108996;-79
2022/05/11 09:57:23;;;;;;;7.00;3.50;;;;;;;34.05;20.86;99824.61;105791;1278;97968;-78
2022/05/11 10:00:16;;;;;;;7.80;3.80;;;;;;;34.39;20.60;99820.52;105799;1279;97995;-80
2022/05/11 10:02:53;;;;;;;10.90;3.40;;;;;;;34.75;20.56;99814.33;107183;1278;112588;-80
2022/05/11 10:05:29;;;;;;;7.90;3.90;;;;;;;35.15;20.06;99815.44;106127;1278;108944;-78
2022/05/11 10:08:07;;;;;;;9.00;5.10;;;;;;;35.29;19.72;99809.77;105817;1278;108682;-76
2022/05/11 10:10:43;;;;;;;11.50;7.10;;;;;;;35.20;19.38;99810.92;107058;1278;96175;-79
2022/05/11 10:13:24;;;;;;;8.30;5.00;;;;;;;35.21;19.45;99809.85;106229;1278;97828;-78
2022/05/11 10:21:57;;;;;;;9.00;4.40;;;;;;;34.91;19.42;99795.52;107597;1272;109099;-79
2022/05/11 10:24:40;;;;;;;5.20;3.80;;;;;;;34.66;19.29;99794.49;107670;1272;95994;-78
2022/05/11 10:27:21;;;;;;;6.60;3.70;;;;;;;34.56;19.43;99791.59;107631;1272;96174;-78
2022/05/11 10:30:04;;;;;;;8.10;3.70;;;;;;;34.43;19.28;99789.98;107603;1273;112640;-78
2022/05/11 10:32:46;;;;;;;5.90;3.80;;;;;;;34.03;19.41;99788.86;107648;1273;107930;-78
2022/05/11 10:35:22;;;;;;;7.60;3.80;;;;;;;33.61;19.77;99791.95;107607;1273;109008;-77
2022/05/11 10:38:18;;;;;;;9.70;4.00;;;;;;;33.50;20.25;99794.86;107650;1272;96408;-78
2022/05/11 10:40:59;;;;;;;9.00;4.00;;;;;;;33.30;20.09;99790.20;107282;1274;96135;-77
2022/05/11 10:43:44;;;;;;;10.80;3.50;;;;;;;32.64;20.43;99788.09;107002;1272;109908;-76
2022/05/11 10:46:37;;;;;;;11.00;4.10;;;;;;;32.04;20.94;99785.89;107679;1271;109066;-77
2022/05/11 10:49:24;;;;;;;11.40;4.70;;;;;;;31.57;21.34;99789.34;106617;1273;107866;-76
2022/05/11 10:52:05;;;;;;;11.20;6.10;;;;;;;31.15;21.86;99785.36;106107;1272;97869;-79
2022/05/11 10:54:48;;;;;;;14.40;6.50;;;;;;;31.22;22.36;99784.20;106159;1272;97929;-79
2022/05/11 10:57:31;;;;;;;16.10;5.60;;;;;;;31.35;22.37;99785.46;107673;1272;112049;-80
2022/05/11 11:00:15;;;;;;;12.70;5.00;;;;;;;31.40;22.60;99779.70;107582;1273;108066;-79
2022/05/11 11:03:20;;;;;;;12.00;4.50;;;;;;;31.51;22.52;99773.75;106094;1273;108470;-78
2022/05/11 11:09:07;;;;;;;11.20;4.40;;;;;;;31.34;22.48;99767.80;106253;1273;97821;-78
2022/05/11 11:11:47;;;;;;;8.40;4.10;;;;;;;31.24;22.80;99764.25;107636;1273;111394;-79
2022/05/11 11:14:26;;;;;;;8.50;3.90;;;;;;;31.22;22.70;99766.00;107702;1273;109087;-80
2022/05/11 11:17:09;;;;;;;8.70;4.20;;;;;;;30.90;22.76;99754.41;107646;1272;108598;-80
2022/05/11 11:19:46;;;;;;;7.50;4.20;;;;;;;30.83;22.64;99763.75;107655;1273;96277;-80
2022/05/11 11:22:19;;;;;;;8.70;4.40;;;;;;;30.85;22.95;99754.92;106744;1273;98548;-81
2022/05/11 11:25:24;;;;;;;8.20;3.80;;;;;;;30.86;22.80;99745.83;106149;1273;112226;-79
2022/05/11 11:28:10;;;;;;;7.60;3.90;;;;;;;30.88;22.87;99741.02;107634;1272;109392;-80
2022/05/11 11:31:04;;;;;;;9.20;3.60;;;;;;;30.88;22.78;99739.07;106725;1273;108900;-79
2022/05/11 11:33:39;;;;;;;7.80;3.70;;;;;;;30.72;22.80;99739.54;107270;1272;96223;-80
2022/05/11 11:36:31;;;;;;;6.80;3.30;;;;;;;30.69;22.66;99733.23;106292;1273;97829;-79
2022/05/11 11:39:06;;;;;;;10.00;4.00;;;;;;;30.65;22.61;99732.08;106135;1273;112668;-78
2022/05/11 11:42:05;;;;;;;7.60;3.90;;;;;;;30.49;22.66;99730.98;107639;1272;107114;-79
2022/05/11 11:44:43;;;;;;;7.00;4.10;;;;;;;30.31;23.13;99731.22;107636;1274;107932;-78
2022/05/11 11:47:40;;;;;;;10.90;4.00;;;;;;;30.34;23.34;99726.17;106205;1273;97920;-79
2022/05/11 11:50:37;;;;;;;6.90;4.10;;;;;;;30.29;23.25;99724.11;106109;1273;97738;-78
2022/05/11 11:53:13;;;;;;;10.80;4.00;;;;;;;30.06;23.32;99720.02;106147;1273;111987;-78
2022/05/11 11:55:45;;;;;;;8.90;4.60;;;;;;;29.89;23.49;99715.61;106166;1273;107382;-78
2022/05/11 11:58:27;;;;;;;8.00;5.60;;;;;;;29.77;23.73;99721.89;106122;1273;108359;-79
2022/05/11 12:01:16;;;;;;;7.30;4.80;;;;;;;29.71;23.99;99719.98;106104;1273;97872;-77
2022/05/11 12:04:01;;;;;;;10.00;4.70;;;;;;;29.69;24.29;99726.46;106089;1273;97784;-79
2022/05/11 12:15:21;;;;;;;12.20;8.10;;;;;;;28.47;25.27;99719.27;107714;1272;96150;-79
2022/05/11 12:17:52;;;;;;;12.40;6.60;;;;;;;28.27;25.86;99715.08;107721;1272;96241;-78
2022/05/11 12:20:25;;;;;;;14.40;6.50;;;;;;;28.18;26.27;99718.25;107664;1273;111435;-78
2022/05/11 12:22:59;;;;;;;13.40;6.80;;;;;;;28.10;26.36;99709.98;107262;1273;109762;-78
2022/05/11 12:25:33;;;;;;;8.90;5.70;;;;;;;28.25;26.23;99703.52;106426;1273;108993;-78
2022/05/11 12:28:22;;;;;;;9.60;5.30;;;;;;;28.41;26.11;99697.46;107685;1273;96124;-79
2022/05/11 12:30:54;;;;;;;10.70;5.90;;;;;;;28.56;26.05;99698.15;107696;1273;96148;-79
2022/05/11 12:33:30;;;;;;;9.50;5.10;;;;;;;28.62;26.47;99692.11;107644;1272;111396;-79
2022/05/11 12:36:03;;;;;;;10.80;5.20;;;;;;;28.62;26.29;99691.54;107680;1271;108897;-79